Accueil
METAR-TAF:

METAR-TAF

Aéroports :

Umiujaq, Québec, Canada

latitude: 56-32N, longitude: 076-31W, altitude: 71 m

Observation

Le bulletin a été fait il y a 6 heures et 23 minutes, à 22:00 UTC
Vent 14 kt de ouest
Température -21°C
Humidité 77%
Pression 1013 hPa
Visibilité: 22.5 km
Nuages fragmentés à une hauteur de 1500 ft
Nuages fragmentés à une hauteur de 2500 ft
Nuages fragmentés à une hauteur de 7000 ft
cristaux de glace, Chasse-neige basse

METAR: CYMU 232200Z 27014KT 14SM IC DRSN BKN015 BKN025 BKN070 M21/M24 A2991 RMK SC6SC1AC1 SC TR LAST STFD OBS/NEXT 241300Z SLP139

Heure: 23:23 (04:23 UTC)


TAF: absent

Observations et prévisions météorologiques de plus de 4000 aéroports (messages METAR et TAF).

Les stations disponibles sont représentées par des disques jaunes et rouges sur la carte.

Passer la souris dessus pour voir le nom de la station.

Cliquer dessus pour voir les observations et prévisions météorologiques.

Pour changer de carte: cliquez sur les boutons verts avec une croix noire pour zoomer, sur le bouton vert avec un tiret pour effectuer un zoom arrière, ou sur les flèches vertes pour les cartes adjacentes.


METAR-TAF: